Time;durP1;ratioP1;P1;durP2;ratioP2;P2;SDS_P1;SDS_P2;PMS_P1;PMS_P2;Temp;Humidity;BMP_temperature;BMP_pressure;BME280_temperature;BME280_humidity;BME280_pressure;Samples;Min_cycle;Max_cycle;Signal;HPM_P1;HPM_P2
2023/02/11 00:01:13;;;;;;;35.40;22.87;;;0.60;99.90;;;;;;4974523;28;20430;-67
2023/02/11 00:03:39;;;;;;;47.80;25.77;;;0.60;99.90;;;;;;4974343;28;20905;-67
2023/02/11 00:06:10;;;;;;;38.87;24.27;;;0.50;99.90;;;;;;4974260;28;20434;-67
2023/02/11 00:08:36;;;;;;;38.63;23.63;;;0.50;99.90;;;;;;4973618;28;20208;-67
2023/02/11 00:11:02;;;;;;;40.97;23.90;;;0.60;99.90;;;;;;4974240;28;20447;-67
2023/02/11 00:13:28;;;;;;;35.10;22.37;;;0.60;99.90;;;;;;4974132;28;20976;-67
2023/02/11 00:15:54;;;;;;;42.70;25.60;;;0.60;99.90;;;;;;4974195;28;20207;-67
2023/02/11 00:18:19;;;;;;;38.77;23.83;;;0.50;99.90;;;;;;4973542;28;20479;-67
2023/02/11 00:20:45;;;;;;;34.87;23.10;;;0.50;99.90;;;;;;4973998;28;20172;-68
2023/02/11 00:23:11;;;;;;;43.27;22.30;;;0.50;99.90;;;;;;4974233;28;20210;-67
2023/02/11 00:25:41;;;;;;;46.73;25.70;;;0.50;99.90;;;;;;4973974;28;20186;-67
2023/02/11 00:28:07;;;;;;;39.50;24.67;;;0.50;99.90;;;;;;4973539;28;20583;-67
2023/02/11 00:30:32;;;;;;;33.63;22.87;;;0.50;99.90;;;;;;4973412;28;20423;-67
2023/02/11 00:32:58;;;;;;;48.00;23.60;;;0.50;99.90;;;;;;4973759;28;20477;-67
2023/02/11 00:35:23;;;;;;;41.47;24.67;;;0.50;99.90;;;;;;4973757;28;20771;-67
2023/02/11 00:37:49;;;;;;;36.10;22.57;;;0.50;99.90;;;;;;4973760;28;20651;-67
2023/02/11 00:40:14;;;;;;;39.73;23.90;;;0.50;99.90;;;;;;4973025;28;20706;-67
2023/02/11 00:42:41;;;;;;;40.00;26.83;;;0.40;99.90;;;;;;4972922;28;20202;-67
2023/02/11 00:45:08;;;;;;;33.50;22.20;;;0.40;99.90;;;;;;4973969;28;20172;-67
2023/02/11 00:47:34;;;;;;;40.03;23.07;;;0.40;99.90;;;;;;4973557;28;20623;-67
2023/02/11 00:50:00;;;;;;;35.53;23.50;;;0.40;99.90;;;;;;4972942;28;20556;-67
2023/02/11 00:52:26;;;;;;;40.20;23.50;;;0.40;99.90;;;;;;4973472;28;20423;-67
2023/02/11 00:54:52;;;;;;;36.30;23.13;;;0.40;99.90;;;;;;4973431;28;20456;-68
2023/02/11 00:57:17;;;;;;;38.47;23.97;;;0.40;99.90;;;;;;4973439;28;20160;-68
2023/02/11 00:59:43;;;;;;;45.77;23.20;;;0.40;99.90;;;;;;4972848;28;20242;-68
2023/02/11 01:02:08;;;;;;;39.93;23.93;;;0.40;99.90;;;;;;4973410;28;20527;-68
2023/02/11 01:04:34;;;;;;;38.90;23.20;;;0.40;99.90;;;;;;4973405;28;20172;-68
2023/02/11 01:06:59;;;;;;;37.83;24.03;;;0.40;99.90;;;;;;4973304;28;20203;-68
2023/02/11 01:09:25;;;;;;;31.43;21.70;;;0.30;99.90;;;;;;4972705;28;20214;-68
2023/02/11 01:11:50;;;;;;;36.80;22.80;;;0.30;99.90;;;;;;4973255;28;20174;-67
2023/02/11 01:14:16;;;;;;;33.50;21.50;;;0.30;99.90;;;;;;4973314;28;20176;-68
2023/02/11 01:16:41;;;;;;;37.83;23.43;;;0.20;99.90;;;;;;4973280;28;20825;-68
2023/02/11 01:19:07;;;;;;;46.47;23.53;;;0.20;99.90;;;;;;4972626;28;20192;-68
2023/02/11 01:21:32;;;;;;;35.10;23.13;;;0.20;99.90;;;;;;4973499;28;20169;-67
2023/02/11 01:23:58;;;;;;;36.90;23.10;;;0.20;99.90;;;;;;4973130;28;20193;-67
2023/02/11 01:26:23;;;;;;;44.00;24.20;;;0.10;99.90;;;;;;4973383;28;20314;-68
2023/02/11 01:28:49;;;;;;;37.17;25.10;;;0.20;99.90;;;;;;4972364;28;20218;-67
2023/02/11 01:31:15;;;;;;;39.40;21.37;;;0.10;99.90;;;;;;4972842;28;20180;-67
2023/02/11 01:33:40;;;;;;;37.87;22.63;;;0.20;99.90;;;;;;4973106;28;20187;-67
2023/02/11 01:36:07;;;;;;;39.03;22.13;;;0.20;99.90;;;;;;4973153;28;20679;-67
2023/02/11 01:38:33;;;;;;;44.93;23.10;;;0.20;99.90;;;;;;4972680;28;20283;-67
2023/02/11 01:41:01;;;;;;;33.50;21.07;;;0.20;99.90;;;;;;4973128;28;20423;-68
2023/02/11 01:43:30;;;;;;;37.03;21.70;;;0.20;99.90;;;;;;4973043;28;20479;-68
2023/02/11 01:46:23;;;;;;;33.50;20.73;;;0.20;99.90;;;;;;4973031;28;20442;-67
2023/02/11 01:48:54;;;;;;;37.97;21.93;;;0.20;99.90;;;;;;4972308;28;20601;-67
2023/02/11 01:51:32;;;;;;;43.97;25.70;;;0.20;99.90;;;;;;4973016;28;20475;-67
2023/02/11 01:59:50;;;;;;;31.73;21.30;;;0.00;99.90;;;;;;4976015;28;20886;-68
2023/02/11 02:02:22;;;;;;;31.53;21.00;;;0.00;99.90;;;;;;4976599;28;20412;-68
2023/02/11 02:04:56;;;;;;;34.13;20.60;;;0.00;99.90;;;;;;4976579;28;20404;-68
2023/02/11 02:07:32;;;;;;;30.50;21.60;;;0.00;99.90;;;;;;4976653;28;20809;-68
2023/02/11 02:10:04;;;;;;;31.57;21.80;;;0.00;99.90;;;;;;4975746;28;20435;-68
2023/02/11 02:12:30;;;;;;;35.77;22.23;;;0.00;99.90;;;;;;4976422;28;20411;-68
2023/02/11 02:15:24;;;;;;;29.23;20.43;;;0.00;99.90;;;;;;4975085;28;20424;-68
2023/02/11 02:18:02;;;;;;;39.90;20.60;;;0.00;99.90;;;;;;4976350;28;20192;-68
2023/02/11 02:21:09;;;;;;;29.13;19.07;;;0.00;99.90;;;;;;4975749;28;20949;-68
2023/02/11 02:24:20;;;;;;;34.50;20.80;;;0.00;99.90;;;;;;4976290;28;20486;-68
2023/02/11 02:27:00;;;;;;;31.30;20.07;;;-0.10;99.90;;;;;;4976370;28;20652;-68
2023/02/11 02:30:07;;;;;;;29.57;19.57;;;-0.10;99.90;;;;;;4975465;28;20536;-68
2023/02/11 02:32:48;;;;;;;29.33;19.00;;;-0.10;99.90;;;;;;4976078;28;20424;-68
2023/02/11 02:35:40;;;;;;;35.60;21.17;;;-0.10;99.90;;;;;;4976270;28;20407;-68
2023/02/11 02:38:19;;;;;;;33.00;19.50;;;-0.10;99.90;;;;;;4975710;28;20424;-68
2023/02/11 02:40:55;;;;;;;34.73;20.87;;;-0.10;99.90;;;;;;4976231;28;20418;-68
2023/02/11 02:43:22;;;;;;;31.40;20.17;;;-0.10;99.90;;;;;;4975929;28;20866;-68
2023/02/11 02:45:48;;;;;;;35.53;21.67;;;0.00;99.90;;;;;;4975754;28;20857;-68
2023/02/11 02:48:34;;;;;;;26.37;17.93;;;0.00;99.90;;;;;;4975089;28;20467;-68
2023/02/11 02:51:30;;;;;;;32.93;19.03;;;0.10;99.90;;;;;;4975723;28;20231;-68
2023/02/11 02:54:17;;;;;;;30.73;21.20;;;0.10;99.90;;;;;;4975564;28;20412;-68
2023/02/11 02:57:01;;;;;;;31.50;21.27;;;0.10;99.90;;;;;;4975608;28;20438;-68
2023/02/11 02:59:29;;;;;;;31.83;21.00;;;0.00;99.90;;;;;;4974961;28;20817;-68
2023/02/11 03:02:05;;;;;;;35.23;20.10;;;0.10;99.90;;;;;;4975484;28;20423;-68
2023/02/11 03:05:12;;;;;;;27.30;19.80;;;0.00;99.90;;;;;;4973458;28;20922;-68
2023/02/11 03:07:50;;;;;;;31.73;21.80;;;0.00;99.90;;;;;;4943125;28;20836;-68
2023/02/11 03:10:24;;;;;;;31.40;20.70;;;0.00;99.90;;;;;;4974967;28;20458;-67
2023/02/11 03:12:52;;;;;;;34.40;20.37;;;0.00;99.90;;;;;;4975254;28;20423;-68
2023/02/11 03:15:19;;;;;;;33.10;21.40;;;0.10;99.90;;;;;;4975299;28;20431;-67
2023/02/11 03:17:48;;;;;;;29.07;19.57;;;0.10;99.90;;;;;;4975240;28;20506;-68
2023/02/11 03:20:18;;;;;;;34.60;22.10;;;0.10;99.90;;;;;;4974721;28;20436;-68
2023/02/11 03:22:57;;;;;;;31.77;18.57;;;0.10;99.90;;;;;;4975131;28;20813;-68
2023/02/11 03:25:31;;;;;;;28.20;16.83;;;0.10;99.90;;;;;;4975085;28;20415;-68
2023/02/11 03:28:14;;;;;;;31.50;20.77;;;0.10;99.90;;;;;;4974942;28;20550;-68
2023/02/11 03:30:58;;;;;;;29.03;19.67;;;0.00;99.90;;;;;;4974976;28;20396;-67
2023/02/11 03:33:33;;;;;;;38.10;21.13;;;0.00;99.90;;;;;;4974968;28;20411;-67
2023/02/11 03:36:03;;;;;;;35.50;22.33;;;0.10;99.90;;;;;;4974902;28;20494;-68
2023/02/11 03:38:33;;;;;;;32.17;19.80;;;0.10;99.90;;;;;;4973999;28;20447;-68
2023/02/11 03:41:03;;;;;;;32.73;19.90;;;0.10;99.90;;;;;;4974755;28;20420;-68
2023/02/11 03:43:34;;;;;;;31.53;20.57;;;0.00;99.90;;;;;;4975059;28;20412;-68
2023/02/11 03:46:01;;;;;;;28.60;20.83;;;0.10;99.90;;;;;;4974724;28;20407;-68
2023/02/11 03:48:31;;;;;;;33.80;21.30;;;0.00;99.90;;;;;;4974049;28;20474;-68
2023/02/11 03:51:00;;;;;;;39.90;21.23;;;0.10;99.90;;;;;;4974655;28;20404;-68
2023/02/11 03:53:26;;;;;;;35.63;22.27;;;0.10;99.90;;;;;;4974471;28;20424;-68
2023/02/11 03:55:55;;;;;;;36.60;22.57;;;0.10;99.90;;;;;;4974434;28;20435;-68
2023/02/11 03:58:20;;;;;;;32.10;20.87;;;0.10;99.90;;;;;;4973849;28;20733;-68
2023/02/11 04:00:46;;;;;;;30.33;20.40;;;0.00;99.90;;;;;;4974410;28;20416;-67
2023/02/11 04:03:12;;;;;;;39.03;21.57;;;0.00;99.90;;;;;;4974365;28;20172;-68
2023/02/11 04:05:38;;;;;;;37.07;22.67;;;-0.10;99.90;;;;;;4974322;28;20593;-68
2023/02/11 04:08:04;;;;;;;33.30;22.00;;;-0.20;99.90;;;;;;4974056;28;20463;-68
2023/02/11 04:10:30;;;;;;;29.67;17.77;;;-0.10;99.90;;;;;;4973817;28;20416;-68
2023/02/11 04:12:56;;;;;;;32.53;19.97;;;-0.10;99.90;;;;;;4974458;28;20487;-68
2023/02/11 04:15:21;;;;;;;32.60;19.30;;;0.00;99.90;;;;;;4974134;28;20183;-68
2023/02/11 04:17:47;;;;;;;31.43;20.40;;;0.20;99.90;;;;;;4973249;28;20702;-67
2023/02/11 04:20:12;;;;;;;26.93;19.63;;;0.30;99.90;;;;;;4973391;28;20219;-67
2023/02/11 04:22:38;;;;;;;25.57;18.80;;;0.30;99.90;;;;;;4973950;28;20183;-67
2023/02/11 04:25:05;;;;;;;35.03;20.00;;;0.30;99.90;;;;;;4973968;28;20176;-67
2023/02/11 04:27:31;;;;;;;29.90;19.50;;;0.30;99.90;;;;;;4972623;28;20247;-67
2023/02/11 04:29:56;;;;;;;28.43;19.33;;;0.30;99.90;;;;;;4973257;28;20436;-68
2023/02/11 04:32:22;;;;;;;31.53;20.00;;;0.40;99.90;;;;;;4973889;28;20179;-68
2023/02/11 04:34:47;;;;;;;29.47;20.63;;;0.40;99.90;;;;;;4973867;28;20172;-68
2023/02/11 04:37:13;;;;;;;28.90;20.03;;;0.50;99.90;;;;;;4973752;28;20172;-68
2023/02/11 04:39:39;;;;;;;31.20;21.33;;;0.50;99.90;;;;;;4973330;28;20738;-68
2023/02/11 04:42:04;;;;;;;35.43;22.40;;;0.60;99.90;;;;;;4973934;28;20195;-68
2023/02/11 04:44:30;;;;;;;30.57;20.07;;;0.50;99.90;;;;;;4973667;28;20631;-68
2023/02/11 04:46:56;;;;;;;31.40;19.33;;;0.50;99.90;;;;;;4973644;28;20176;-68
2023/02/11 04:49:21;;;;;;;32.20;20.90;;;0.50;99.90;;;;;;4972897;28;20216;-67
2023/02/11 04:51:47;;;;;;;28.20;18.70;;;0.50;99.90;;;;;;4973438;28;20231;-68
2023/02/11 04:54:12;;;;;;;33.43;20.93;;;0.50;99.90;;;;;;4973392;28;20188;-67
2023/02/11 04:56:38;;;;;;;35.10;20.93;;;0.60;99.90;;;;;;4973826;28;20191;-69
2023/02/11 04:59:04;;;;;;;32.33;21.20;;;0.70;99.90;;;;;;4972599;28;20575;-69
2023/02/11 05:01:30;;;;;;;32.77;20.57;;;0.70;99.90;;;;;;4973407;28;20255;-68
2023/02/11 05:03:56;;;;;;;31.17;20.10;;;0.80;99.90;;;;;;4973412;28;20419;-68
2023/02/11 05:06:22;;;;;;;32.10;21.03;;;0.90;99.90;;;;;;4973202;28;20176;-69
2023/02/11 05:08:47;;;;;;;33.63;21.73;;;0.90;99.90;;;;;;4972528;28;20223;-69
2023/02/11 05:11:19;;;;;;;34.67;22.87;;;0.90;99.90;;;;;;4973318;28;20164;-69
2023/02/11 05:13:46;;;;;;;29.07;20.90;;;0.90;99.90;;;;;;4973361;28;20180;-69
2023/02/11 05:16:12;;;;;;;32.17;20.60;;;0.90;99.90;;;;;;4973271;28;20411;-69
2023/02/11 05:18:39;;;;;;;32.43;20.57;;;0.90;99.90;;;;;;4972484;28;20817;-69
2023/02/11 05:21:10;;;;;;;23.90;19.70;;;0.90;99.90;;;;;;4973000;28;20427;-68
2023/02/11 05:23:37;;;;;;;29.40;19.40;;;1.00;99.90;;;;;;4973265;28;20433;-69
2023/02/11 05:26:03;;;;;;;32.73;19.83;;;0.90;99.90;;;;;;4973145;28;20424;-69
2023/02/11 05:28:28;;;;;;;32.37;19.37;;;0.90;99.90;;;;;;4972526;28;20559;-69
2023/02/11 05:30:54;;;;;;;31.57;20.80;;;0.80;99.90;;;;;;4977142;28;20222;-69
2023/02/11 05:33:20;;;;;;;32.80;22.07;;;0.70;99.90;;;;;;4977181;28;20287;-69
2023/02/11 05:35:45;;;;;;;31.27;20.67;;;0.60;99.90;;;;;;4977041;28;20434;-68
2023/02/11 05:38:11;;;;;;;35.07;20.97;;;0.60;99.90;;;;;;4976542;28;20172;-69
2023/02/11 05:40:37;;;;;;;32.13;19.97;;;0.60;99.90;;;;;;4976835;28;20210;-69
2023/02/11 05:43:02;;;;;;;34.23;20.93;;;0.70;99.90;;;;;;4976913;28;20292;-69
2023/02/11 05:45:29;;;;;;;32.37;20.60;;;0.80;99.90;;;;;;4976883;28;20176;-69
2023/02/11 05:47:55;;;;;;;32.70;19.23;;;0.90;99.90;;;;;;4976611;28;20215;-69
2023/02/11 05:50:21;;;;;;;27.73;19.60;;;1.00;99.90;;;;;;4976063;28;20451;-69
2023/02/11 05:52:46;;;;;;;27.60;19.43;;;1.00;99.90;;;;;;4976828;28;20502;-69
2023/02/11 05:55:12;;;;;;;30.70;20.30;;;1.00;99.90;;;;;;4976764;28;20234;-69
2023/02/11 05:57:37;;;;;;;31.43;21.83;;;0.90;99.90;;;;;;4976729;28;20655;-69
2023/02/11 06:00:05;;;;;;;34.23;20.13;;;1.00;99.90;;;;;;4975881;28;20611;-69
2023/02/11 06:02:30;;;;;;;27.73;19.60;;;1.10;99.90;;;;;;4976644;28;20179;-69
2023/02/11 06:04:56;;;;;;;31.00;20.67;;;1.00;99.90;;;;;;4976516;28;20416;-69
2023/02/11 06:07:21;;;;;;;30.10;20.77;;;1.00;99.90;;;;;;4976457;28;20208;-69
2023/02/11 06:09:47;;;;;;;28.37;19.50;;;1.00;99.90;;;;;;4975815;28;20595;-69
2023/02/11 06:12:12;;;;;;;32.40;19.90;;;1.10;99.90;;;;;;4976384;28;20196;-69
2023/02/11 06:14:38;;;;;;;33.10;21.90;;;1.20;99.90;;;;;;4976341;28;20223;-69
2023/02/11 06:17:03;;;;;;;27.47;19.27;;;1.20;99.90;;;;;;4976428;28;20211;-69
2023/02/11 06:19:30;;;;;;;31.17;21.13;;;1.30;99.90;;;;;;4975683;28;20654;-69
2023/02/11 06:21:56;;;;;;;32.60;20.60;;;1.20;99.90;;;;;;4976201;28;20165;-69
2023/02/11 06:24:22;;;;;;;29.37;21.10;;;1.30;99.90;;;;;;4976172;28;20800;-68
2023/02/11 06:26:47;;;;;;;30.73;20.57;;;1.20;99.90;;;;;;4975932;28;20427;-68
2023/02/11 06:29:13;;;;;;;29.40;21.20;;;1.20;99.90;;;;;;4973970;28;20212;-69
2023/02/11 06:31:38;;;;;;;30.60;21.03;;;1.10;99.90;;;;;;4975780;28;20173;-69
2023/02/11 06:34:04;;;;;;;27.67;20.57;;;1.00;99.90;;;;;;4975958;28;20630;-69
2023/02/11 06:36:30;;;;;;;27.17;20.30;;;1.00;99.90;;;;;;4976256;28;20176;-69
2023/02/11 06:38:55;;;;;;;35.23;19.97;;;1.10;99.90;;;;;;4974491;28;20200;-68
2023/02/11 06:41:21;;;;;;;30.10;19.73;;;1.20;99.90;;;;;;4975325;28;20190;-68
2023/02/11 06:43:47;;;;;;;26.50;20.13;;;1.30;99.90;;;;;;4975772;28;20184;-68
2023/02/11 06:46:13;;;;;;;27.97;20.93;;;1.30;99.90;;;;;;4975787;28;20185;-68
2023/02/11 06:48:39;;;;;;;29.80;19.03;;;1.30;99.90;;;;;;4974868;28;20528;-69
2023/02/11 06:51:08;;;;;;;28.93;21.23;;;1.40;99.90;;;;;;4975651;28;20204;-69
2023/02/11 06:53:36;;;;;;;27.13;20.83;;;1.40;99.90;;;;;;4975690;28;20793;-68
2023/02/11 06:56:04;;;;;;;30.00;21.83;;;1.40;99.90;;;;;;4975514;28;20443;-69
2023/02/11 06:58:30;;;;;;;32.00;19.80;;;1.40;99.90;;;;;;4974811;28;20506;-69
2023/02/11 07:00:56;;;;;;;29.60;19.53;;;1.40;99.90;;;;;;4975611;28;20428;-69
2023/02/11 07:03:21;;;;;;;29.10;20.43;;;1.40;99.90;;;;;;4975444;28;20427;-69
2023/02/11 07:05:47;;;;;;;31.83;21.23;;;1.40;99.90;;;;;;4975438;28;20183;-69
2023/02/11 07:08:12;;;;;;;26.00;19.10;;;1.30;99.90;;;;;;4974506;28;20617;-69
2023/02/11 07:10:38;;;;;;;27.10;20.23;;;1.30;99.90;;;;;;4975342;28;20552;-69
2023/02/11 07:13:04;;;;;;;29.67;19.77;;;1.30;99.90;;;;;;4975364;28;20184;-69
2023/02/11 07:15:29;;;;;;;31.97;20.50;;;1.20;99.90;;;;;;4975285;28;20172;-69
2023/02/11 07:17:55;;;;;;;25.53;18.80;;;1.20;99.90;;;;;;4975118;28;20259;-69
2023/02/11 07:20:20;;;;;;;30.37;19.97;;;1.30;99.90;;;;;;4974591;28;20176;-69
2023/02/11 07:22:45;;;;;;;29.80;20.67;;;1.40;99.90;;;;;;4975257;28;20199;-69
2023/02/11 07:25:11;;;;;;;28.53;20.63;;;1.50;99.90;;;;;;4975064;28;20185;-69
2023/02/11 07:27:37;;;;;;;33.57;20.20;;;1.50;99.90;;;;;;4973259;28;20211;-69
2023/02/11 07:30:03;;;;;;;29.57;20.30;;;1.60;99.90;;;;;;4974232;28;20193;-69
2023/02/11 07:32:29;;;;;;;29.33;21.27;;;1.70;99.90;;;;;;4975028;28;20316;-69
2023/02/11 07:34:54;;;;;;;30.77;20.43;;;1.70;99.90;;;;;;4974907;28;20431;-69
2023/02/11 07:37:20;;;;;;;32.50;20.97;;;1.70;99.90;;;;;;4974835;28;20176;-69
2023/02/11 07:39:45;;;;;;;25.60;18.27;;;1.80;99.90;;;;;;4974013;28;20198;-69
2023/02/11 07:42:11;;;;;;;27.93;20.17;;;1.90;99.90;;;;;;4974773;28;20180;-69
2023/02/11 07:44:36;;;;;;;25.50;19.60;;;2.10;99.90;;;;;;4974852;28;20708;-69
2023/02/11 07:47:02;;;;;;;24.47;18.07;;;2.20;99.90;;;;;;4974738;28;20254;-69
2023/02/11 07:49:28;;;;;;;24.00;18.23;;;2.50;99.90;;;;;;4973798;28;20250;-69
2023/02/11 07:51:53;;;;;;;28.87;20.67;;;2.80;99.90;;;;;;4974233;28;20172;-69
2023/02/11 07:54:19;;;;;;;34.17;24.87;;;3.10;99.90;;;;;;4974551;28;20582;-69
2023/02/11 07:56:44;;;;;;;32.07;22.90;;;3.30;99.90;;;;;;4974428;28;20180;-69
2023/02/11 07:59:10;;;;;;;27.13;19.60;;;3.40;99.90;;;;;;4973745;28;20188;-68
2023/02/11 08:01:36;;;;;;;26.50;19.80;;;3.70;99.90;;;;;;4974407;28;20635;-68
2023/02/11 08:04:02;;;;;;;23.80;18.97;;;3.90;99.90;;;;;;4974345;28;20482;-69
2023/02/11 08:06:31;;;;;;;25.50;18.80;;;4.00;99.90;;;;;;4974241;28;20431;-69
2023/02/11 08:09:02;;;;;;;24.90;18.73;;;4.00;99.90;;;;;;4973361;28;20559;-69
2023/02/11 08:11:28;;;;;;;26.63;19.20;;;4.20;99.90;;;;;;4974127;28;20420;-69
2023/02/11 08:13:55;;;;;;;28.80;18.17;;;4.30;99.90;;;;;;4974169;28;20478;-69
2023/02/11 08:16:24;;;;;;;22.83;16.93;;;4.40;99.90;;;;;;4974068;28;20251;-69
2023/02/11 08:18:50;;;;;;;23.30;17.73;;;4.50;99.90;;;;;;4973195;28;20439;-69
2023/02/11 08:21:17;;;;;;;26.00;17.10;;;4.60;99.90;;;;;;4974016;28;20430;-68
2023/02/11 08:23:44;;;;;;;22.40;17.37;;;4.80;99.90;;;;;;4974051;28;20427;-69
2023/02/11 08:26:15;;;;;;;22.23;16.17;;;4.90;99.90;;;;;;4974017;28;20423;-69
2023/02/11 08:28:43;;;;;;;23.60;17.67;;;5.00;99.90;;;;;;4972149;28;20868;-69
2023/02/11 08:31:11;;;;;;;23.90;17.87;;;5.10;99.90;;;;;;4973821;28;20455;-69
2023/02/11 08:33:39;;;;;;;21.57;15.97;;;5.50;99.90;;;;;;4973863;28;20498;-69
2023/02/11 08:36:22;;;;;;;28.10;18.70;;;5.80;99.90;;;;;;4973781;28;20986;-69
2023/02/11 08:38:48;;;;;;;38.30;24.83;;;6.10;99.90;;;;;;4973004;28;20436;-69
2023/02/11 08:41:15;;;;;;;25.90;18.33;;;6.40;99.90;;;;;;4973849;28;20434;-69
2023/02/11 08:43:42;;;;;;;26.20;18.87;;;6.60;99.90;;;;;;4973580;28;20419;-69
2023/02/11 08:46:10;;;;;;;30.23;21.50;;;6.70;99.90;;;;;;4973582;28;20760;-69
2023/02/11 08:48:36;;;;;;;39.47;26.90;;;6.90;99.90;;;;;;4972747;28;20464;-68
2023/02/11 08:51:10;;;;;;;23.10;18.17;;;7.00;99.90;;;;;;4973581;28;20850;-68
2023/02/11 08:53:36;;;;;;;19.07;16.53;;;7.20;99.90;;;;;;4973594;28;20178;-69
2023/02/11 08:56:02;;;;;;;19.30;15.67;;;8.90;99.90;;;;;;4973356;28;20432;-69
2023/02/11 08:58:27;;;;;;;20.53;16.93;;;10.60;99.90;;;;;;4972589;28;20443;-69
2023/02/11 09:00:53;;;;;;;16.90;14.40;;;11.90;98.20;;;;;;4973417;28;20423;-68
2023/02/11 09:03:18;;;;;;;16.80;13.90;;;12.00;94.60;;;;;;4972799;28;20254;-69
2023/02/11 09:05:46;;;;;;;16.53;13.87;;;12.50;92.30;;;;;;4973468;28;20200;-69
2023/02/11 09:08:13;;;;;;;17.43;15.30;;;12.50;91.50;;;;;;4972670;28;20220;-69
2023/02/11 09:10:39;;;;;;;16.77;13.27;;;12.10;90.00;;;;;;4973256;28;20419;-69
2023/02/11 09:13:05;;;;;;;16.13;14.27;;;11.60;92.00;;;;;;4973292;28;20423;-69
2023/02/11 09:15:31;;;;;;;16.87;14.37;;;11.90;91.60;;;;;;4973385;28;20419;-70
2023/02/11 09:17:57;;;;;;;16.30;14.00;;;13.20;88.00;;;;;;4973101;28;20553;-69
2023/02/11 09:20:23;;;;;;;15.30;13.90;;;13.90;82.20;;;;;;4972485;28;20179;-69
2023/02/11 09:22:49;;;;;;;15.90;14.20;;;14.70;77.40;;;;;;4973250;28;20455;-69
2023/02/11 09:25:14;;;;;;;16.47;14.70;;;13.90;77.70;;;;;;4973178;28;20419;-69
2023/02/11 09:27:40;;;;;;;17.80;14.23;;;14.30;75.80;;;;;;4972131;28;20211;-69
2023/02/11 09:30:06;;;;;;;16.37;13.30;;;14.80;73.80;;;;;;4972250;28;20192;-69
2023/02/11 09:32:31;;;;;;;14.33;12.90;;;15.60;71.70;;;;;;4973066;28;20172;-69
2023/02/11 09:34:57;;;;;;;15.97;13.07;;;15.80;66.00;;;;;;4973090;28;20913;-69
2023/02/11 09:37:22;;;;;;;13.97;12.57;;;15.30;67.00;;;;;;4973039;28;20206;-69
2023/02/11 09:39:48;;;;;;;14.97;12.10;;;14.80;66.50;;;;;;4972388;28;20195;-69
2023/02/11 09:42:29;;;;;;;16.10;13.07;;;15.30;67.00;;;;;;4973204;28;20175;-70
2023/02/11 09:44:56;;;;;;;18.13;14.73;;;15.90;65.20;;;;;;4972945;28;20251;-69
2023/02/11 09:47:30;;;;;;;17.27;15.47;;;16.70;63.10;;;;;;4972958;28;20506;-70
2023/02/11 09:50:01;;;;;;;18.10;16.27;;;17.10;60.10;;;;;;4972122;28;20431;-70
2023/02/11 09:52:34;;;;;;;18.20;16.40;;;17.40;59.10;;;;;;4972940;28;20422;-69
2023/02/11 09:55:04;;;;;;;19.47;17.63;;;16.20;59.10;;;;;;4972938;28;20482;-69
2023/02/11 09:57:35;;;;;;;20.10;17.87;;;16.40;59.40;;;;;;4972877;28;20430;-70
2023/02/11 10:00:11;;;;;;;20.63;17.30;;;15.30;59.60;;;;;;4972077;28;20546;-69
2023/02/11 10:03:03;;;;;;;18.93;16.93;;;14.90;61.70;;;;;;4972767;28;20424;-69
2023/02/11 10:05:58;;;;;;;19.17;17.37;;;14.40;63.20;;;;;;4953406;28;20475;-69
2023/02/11 10:08:50;;;;;;;18.77;16.77;;;13.80;65.90;;;;;;4972029;28;20486;-69
2023/02/11 10:11:40;;;;;;;19.17;17.27;;;14.10;67.00;;;;;;4972689;28;20418;-69
2023/02/11 10:14:28;;;;;;;17.77;15.80;;;13.80;64.50;;;;;;4974020;28;20423;-69
2023/02/11 10:17:27;;;;;;;17.80;16.10;;;13.10;67.20;;;;;;4976485;28;20420;-70
2023/02/11 10:20:13;;;;;;;16.43;14.73;;;13.50;67.40;;;;;;4975730;28;20538;-69
2023/02/11 10:22:53;;;;;;;17.93;16.10;;;15.60;64.30;;;;;;4976320;28;20412;-70
2023/02/11 10:25:23;;;;;;;16.97;15.20;;;17.10;58.70;;;;;;4976208;28;20509;-70
2023/02/11 10:27:50;;;;;;;17.17;13.83;;;19.20;55.40;;;;;;4976029;28;20463;-70
2023/02/11 10:30:31;;;;;;;16.63;14.97;;;20.90;52.30;;;;;;4975264;28;20968;-70
2023/02/11 10:33:05;;;;;;;15.70;14.27;;;21.40;48.70;;;;;;4976088;28;20535;-70
2023/02/11 10:35:32;;;;;;;15.10;13.50;;;22.50;46.00;;;;;;4975990;28;20461;-70
2023/02/11 10:37:58;;;;;;;15.30;13.87;;;22.50;44.40;;;;;;4975807;28;20934;-70
2023/02/11 10:40:26;;;;;;;21.73;19.50;;;22.10;44.20;;;;;;4975256;28;20930;-70
2023/02/11 10:42:57;;;;;;;15.50;14.10;;;22.70;43.00;;;;;;4975795;28;20771;-67
2023/02/11 10:45:38;;;;;;;14.03;12.87;;;24.30;41.10;;;;;;4975943;28;20431;-67
2023/02/11 10:48:25;;;;;;;13.77;12.47;;;25.20;38.70;;;;;;4975669;28;20474;-68
2023/02/11 10:51:11;;;;;;;15.23;13.73;;;26.20;37.30;;;;;;4975616;28;20514;-68
2023/02/11 10:53:38;;;;;;;15.20;13.90;;;27.50;34.90;;;;;;4975760;28;20407;-67
2023/02/11 10:56:05;;;;;;;14.90;13.30;;;28.30;33.30;;;;;;4975502;28;20440;-67
2023/02/11 10:58:43;;;;;;;8.33;7.63;;;27.60;32.50;;;;;;4975213;28;20534;-67
2023/02/11 11:01:09;;;;;;;12.33;11.33;;;26.60;31.90;;;;;;4975623;28;20415;-67
2023/02/11 11:03:39;;;;;;;12.77;11.50;;;26.50;32.50;;;;;;4975554;28;20447;-67
2023/02/11 11:06:07;;;;;;;9.33;8.27;;;27.00;32.60;;;;;;4975512;28;20171;-67
2023/02/11 11:08:45;;;;;;;6.80;6.23;;;26.70;32.00;;;;;;4974645;28;20467;-66
2023/02/11 11:11:20;;;;;;;6.70;5.97;;;25.10;33.10;;;;;;4975313;28;20419;-67
2023/02/11 11:13:52;;;;;;;8.40;6.90;;;26.30;32.60;;;;;;4975299;28;20423;-67
2023/02/11 11:16:22;;;;;;;6.67;6.10;;;27.30;31.60;;;;;;4975338;28;20811;-67
2023/02/11 11:18:51;;;;;;;7.57;6.87;;;27.30;30.80;;;;;;4974451;28;20466;-67
2023/02/11 11:21:30;;;;;;;7.53;7.03;;;28.30;31.40;;;;;;4975218;28;20558;-67
2023/02/11 11:23:58;;;;;;;6.40;5.90;;;28.70;32.60;;;;;;4975128;28;20446;-66
2023/02/11 11:26:37;;;;;;;8.77;8.17;;;27.60;33.20;;;;;;4974497;28;20570;-66
2023/02/11 11:29:25;;;;;;;7.63;7.00;;;26.20;33.20;;;;;;4973217;28;20864;-67
2023/02/11 11:31:56;;;;;;;7.97;7.33;;;25.40;34.40;;;;;;4974759;28;20881;-68
2023/02/11 11:34:55;;;;;;;7.27;6.67;;;27.50;34.10;;;;;;4975035;28;20443;-67
2023/02/11 11:37:30;;;;;;;8.60;7.83;;;27.50;33.10;;;;;;4974729;28;20427;-67
2023/02/11 11:40:01;;;;;;;9.40;8.50;;;28.00;33.60;;;;;;4974172;28;20522;-67
2023/02/11 11:42:32;;;;;;;10.73;9.63;;;28.20;35.50;;;;;;4973536;28;20439;-67
2023/02/11 11:45:08;;;;;;;9.13;8.40;;;29.90;29.80;;;;;;4974877;28;20415;-67
2023/02/11 11:47:43;;;;;;;8.30;7.70;;;30.50;31.20;;;;;;4974678;28;20466;-67
2023/02/11 11:50:26;;;;;;;9.40;8.60;;;31.00;28.00;;;;;;4973994;28;20439;-67
2023/02/11 11:53:29;;;;;;;7.90;7.23;;;30.20;27.60;;;;;;4974648;28;20419;-67
2023/02/11 11:56:06;;;;;;;9.33;8.53;;;28.50;27.40;;;;;;4956421;28;20443;-67
2023/02/11 11:58:32;;;;;;;9.03;8.40;;;27.70;28.60;;;;;;4973682;28;20443;-67
2023/02/11 12:01:38;;;;;;;8.37;7.77;;;29.70;28.20;;;;;;4974424;28;20914;-67
2023/02/11 12:04:15;;;;;;;7.87;7.17;;;30.50;27.40;;;;;;4974418;28;20470;-67
2023/02/11 12:07:04;;;;;;;8.33;7.70;;;31.50;26.60;;;;;;4974303;28;20415;-67
2023/02/11 12:09:38;;;;;;;7.60;6.90;;;28.90;26.80;;;;;;4973487;28;20463;-67
2023/02/11 12:12:47;;;;;;;7.20;6.60;;;27.80;27.90;;;;;;4974512;28;20427;-69
2023/02/11 12:15:54;;;;;;;8.10;7.43;;;25.20;28.80;;;;;;4974232;28;20431;-69
2023/02/11 12:18:41;;;;;;;7.60;6.90;;;22.80;31.50;;;;;;4973369;28;20493;-69
2023/02/11 12:21:26;;;;;;;9.13;8.27;;;21.30;33.30;;;;;;4973981;28;20790;-69
2023/02/11 12:24:23;;;;;;;7.90;7.20;;;20.80;33.60;;;;;;4974066;28;20810;-69
2023/02/11 12:27:18;;;;;;;7.80;7.10;;;22.30;33.30;;;;;;4973810;28;20419;-69
2023/02/11 12:30:03;;;;;;;13.90;11.83;;;26.70;29.90;;;;;;4973247;28;20508;-69
2023/02/11 12:32:38;;;;;;;13.00;11.90;;;28.80;28.60;;;;;;4973943;28;20930;-69
2023/02/11 12:35:24;;;;;;;15.50;12.43;;;29.60;28.10;;;;;;4973902;28;20422;-67
2023/02/11 12:38:20;;;;;;;13.60;12.40;;;31.30;28.00;;;;;;4972854;28;20546;-67
2023/02/11 12:41:00;;;;;;;15.30;14.00;;;29.50;27.60;;;;;;4973707;28;20411;-66
2023/02/11 12:43:35;;;;;;;15.70;14.30;;;29.10;28.20;;;;;;4973640;28;20420;-67
2023/02/11 12:46:15;;;;;;;13.33;12.33;;;28.80;28.00;;;;;;4973660;28;20423;-67
2023/02/11 12:49:10;;;;;;;12.77;11.57;;;27.00;29.00;;;;;;4972980;28;20477;-67
2023/02/11 12:51:54;;;;;;;12.17;11.00;;;25.20;30.00;;;;;;4973580;28;20447;-69
2023/02/11 12:54:37;;;;;;;11.90;10.80;;;22.40;32.90;;;;;;4973747;28;20407;-69
2023/02/11 12:57:13;;;;;;;11.33;10.23;;;20.40;35.70;;;;;;4973555;28;20518;-69
2023/02/11 12:59:50;;;;;;;12.00;10.77;;;19.40;37.40;;;;;;4972602;28;20582;-69
2023/02/11 13:02:53;;;;;;;14.20;11.50;;;18.50;39.00;;;;;;4973409;28;20530;-69